Авиационная погода в Витебске

Регион: 
Погода METAR: 
UMII 221500Z 36004MPS 9999 BKN018CB M08/M12 Q1009 TEMPO 2000 SHSN BKN005
Время наблюдения
2022-01-22T15:00:00Z
Температура C
-8.0
Точка росы
-12.0
Направление ветра
360
Скорость ветра (узлы)
8
Метео видимость
6.21
Облачность
BKN
Нижняя граница облачности (футы)
1800
Явления погоды
Условия полета
MVFR
BKN – значительная (рассеянная, разорванная) облачность;